createdAt,value
2017-08-22T00:00:59.478Z,9.48
2017-08-22T00:03:32.845Z,9.40
2017-08-22T00:06:00.385Z,9.95
2017-08-22T00:08:27.992Z,9.43
2017-08-22T00:10:55.534Z,10.43
2017-08-22T00:13:23.079Z,10.10
2017-08-22T00:15:50.657Z,9.25
2017-08-22T00:18:18.191Z,9.60
2017-08-22T00:20:45.957Z,10.55
2017-08-22T00:23:13.498Z,9.52
2017-08-22T00:25:41.362Z,9.70
2017-08-22T00:28:08.905Z,10.65
2017-08-22T00:30:36.526Z,9.32
2017-08-22T00:33:04.065Z,8.85
2017-08-22T00:35:31.601Z,9.30
2017-08-22T00:37:59.357Z,10.30
2017-08-22T00:40:27.347Z,9.93
2017-08-22T00:42:54.886Z,9.15
2017-08-22T00:45:22.428Z,8.65
2017-08-22T00:47:50.012Z,9.15
2017-08-22T00:50:17.552Z,9.48
2017-08-22T00:52:45.133Z,9.35
2017-08-22T00:55:12.677Z,9.05
2017-08-22T00:57:43.959Z,11.40
2017-08-22T01:00:11.821Z,8.88
2017-08-22T01:02:39.348Z,9.13
2017-08-22T01:05:06.888Z,9.20
2017-08-22T01:07:34.461Z,11.68
2017-08-22T01:10:02.030Z,8.43
2017-08-22T01:12:29.570Z,8.95
2017-08-22T01:14:59.030Z,9.20
2017-08-22T01:17:26.573Z,8.55
2017-08-22T01:19:54.170Z,10.48
2017-08-22T01:22:21.709Z,8.45
2017-08-22T01:24:49.246Z,8.43
2017-08-22T01:27:22.561Z,9.50
2017-08-22T01:29:50.103Z,8.93
2017-08-22T01:32:17.629Z,9.02
2017-08-22T01:34:45.436Z,8.90
2017-08-22T01:37:12.972Z,8.50
2017-08-22T01:39:40.570Z,8.52
2017-08-22T01:42:08.110Z,8.45
2017-08-22T01:44:35.642Z,8.60
2017-08-22T01:47:03.229Z,10.00
2017-08-22T01:49:30.774Z,8.38
2017-08-22T01:51:58.413Z,8.57
2017-08-22T01:54:25.948Z,8.80
2017-08-22T01:56:53.540Z,8.75
2017-08-22T01:59:21.068Z,8.55
2017-08-22T02:01:48.678Z,8.63
2017-08-22T02:04:16.281Z,9.20
2017-08-22T02:06:43.929Z,9.15
2017-08-22T02:09:11.461Z,8.60
2017-08-22T02:11:39.033Z,12.05
2017-08-22T02:14:06.582Z,9.55
2017-08-22T02:16:34.222Z,8.77
2017-08-22T02:19:01.751Z,9.70
2017-08-22T02:21:29.332Z,8.90
2017-08-22T02:23:56.869Z,8.52
2017-08-22T02:26:24.714Z,9.00
2017-08-22T02:28:52.250Z,8.93
2017-08-22T02:31:19.838Z,9.43
2017-08-22T02:33:47.375Z,8.75
2017-08-22T02:36:14.957Z,9.02
2017-08-22T02:38:42.534Z,9.23
2017-08-22T02:41:10.073Z,9.95
2017-08-22T02:43:37.841Z,9.65
2017-08-22T02:46:05.378Z,9.27
2017-08-22T02:48:32.949Z,8.82
2017-08-22T02:51:00.480Z,9.10
2017-08-22T02:53:28.054Z,8.50
2017-08-22T02:55:55.608Z,9.40
2017-08-22T02:58:23.253Z,8.98
2017-08-22T03:00:50.790Z,9.90
2017-08-22T03:03:18.373Z,9.43
2017-08-22T03:05:46.066Z,10.07
2017-08-22T03:08:13.649Z,9.90
2017-08-22T03:10:41.190Z,9.57
2017-08-22T03:13:09.140Z,9.43
2017-08-22T03:15:36.725Z,9.48
2017-08-22T03:18:04.261Z,9.82
2017-08-22T03:20:32.164Z,9.30
2017-08-22T03:22:59.693Z,9.00
2017-08-22T03:25:27.234Z,8.90
2017-08-22T03:27:54.883Z,9.02
2017-08-22T03:30:22.922Z,8.80
2017-08-22T03:32:50.454Z,9.13
2017-08-22T03:35:17.990Z,8.93
2017-08-22T03:37:45.565Z,9.18
2017-08-22T03:40:13.109Z,10.35
2017-08-22T03:42:40.685Z,9.38
2017-08-22T03:45:08.273Z,9.57
2017-08-22T03:47:35.919Z,9.40
2017-08-22T03:50:03.456Z,9.50
2017-08-22T03:52:31.037Z,9.80
2017-08-22T03:54:58.621Z,9.52
2017-08-22T03:57:26.157Z,8.63
2017-08-22T03:59:53.994Z,8.85
2017-08-22T04:02:21.532Z,9.30
2017-08-22T04:04:49.318Z,9.82
2017-08-22T04:07:17.057Z,8.70
2017-08-22T04:09:44.633Z,9.07
2017-08-22T04:12:12.174Z,10.32
2017-08-22T04:14:39.813Z,9.30
2017-08-22T04:17:07.349Z,9.20
2017-08-22T04:19:35.213Z,9.65
2017-08-22T04:22:02.754Z,9.65
2017-08-22T04:24:30.287Z,8.95
2017-08-22T04:26:58.744Z,9.77
2017-08-22T04:29:26.285Z,9.32
2017-08-22T04:31:53.825Z,8.50
2017-08-22T04:34:21.558Z,9.48
2017-08-22T04:36:49.101Z,10.18
2017-08-22T04:39:16.654Z,9.15
2017-08-22T04:41:44.400Z,13.10
2017-08-22T04:44:11.955Z,8.32
2017-08-22T04:46:39.542Z,9.85
2017-08-22T04:49:07.120Z,9.50
2017-08-22T04:51:34.705Z,10.57
2017-08-22T04:54:03.002Z,9.85
2017-08-22T04:56:30.734Z,9.57
2017-08-22T04:58:58.271Z,8.90
2017-08-22T05:01:25.864Z,10.73
2017-08-22T05:03:53.412Z,9.85
2017-08-22T05:06:20.985Z,8.73
2017-08-22T05:08:48.562Z,8.13
2017-08-22T05:11:16.146Z,8.02
2017-08-22T05:13:44.022Z,8.63
2017-08-22T05:16:11.572Z,8.50
2017-08-22T05:18:39.145Z,9.48
2017-08-22T05:21:06.749Z,9.57
2017-08-22T05:23:34.289Z,10.07
2017-08-22T05:26:03.254Z,10.23
2017-08-22T05:28:31.034Z,10.20
2017-08-22T05:30:58.681Z,9.90
2017-08-22T05:33:26.236Z,10.10
2017-08-22T05:35:53.873Z,11.10
2017-08-22T05:38:21.425Z,10.38
2017-08-22T05:40:49.002Z,10.40
2017-08-22T05:43:16.545Z,11.18
2017-08-22T05:45:47.114Z,9.90
2017-08-22T05:48:14.646Z,9.18
2017-08-22T05:50:42.182Z,8.90
2017-08-22T05:53:10.033Z,9.00
2017-08-22T05:55:37.612Z,9.50
2017-08-22T05:58:05.140Z,8.77
2017-08-22T06:00:32.780Z,8.60
2017-08-22T06:03:01.981Z,9.02
2017-08-22T06:05:29.516Z,9.00
2017-08-22T06:07:57.052Z,8.27
2017-08-22T06:10:24.957Z,9.02
2017-08-22T06:12:52.489Z,8.73
2017-08-22T06:15:20.040Z,8.85
2017-08-22T06:17:48.156Z,8.88
2017-08-22T06:20:15.680Z,8.00
2017-08-22T06:22:43.213Z,9.30
2017-08-22T06:25:14.672Z,10.18
2017-08-22T06:27:42.598Z,9.82
2017-08-22T06:30:10.135Z,10.20
2017-08-22T06:32:37.892Z,9.80
2017-08-22T06:35:05.464Z,9.57
2017-08-22T06:37:33.002Z,10.05
2017-08-22T06:40:00.641Z,10.20
2017-08-22T06:42:28.209Z,10.15
2017-08-22T06:44:55.914Z,10.00
2017-08-22T06:47:23.444Z,9.10
2017-08-22T06:49:51.088Z,8.68
2017-08-22T06:52:18.626Z,9.43
2017-08-22T06:54:46.209Z,10.13
2017-08-22T06:57:13.736Z,8.88
2017-08-22T06:59:41.701Z,12.60
2017-08-22T07:02:09.241Z,9.23
2017-08-22T07:04:36.783Z,9.43
2017-08-22T07:07:04.493Z,9.55
2017-08-22T07:09:32.037Z,8.18
2017-08-22T07:11:59.615Z,7.50
2017-08-22T07:14:27.157Z,8.00
2017-08-22T07:16:54.844Z,8.65
2017-08-22T07:19:22.388Z,8.43
2017-08-22T07:21:49.946Z,8.50
2017-08-22T07:24:17.653Z,8.25
2017-08-22T07:26:46.869Z,9.02
2017-08-22T07:29:14.470Z,8.48
2017-08-22T07:31:42.006Z,8.80
2017-08-22T07:34:09.745Z,12.85
2017-08-22T07:36:37.289Z,9.25
2017-08-22T07:39:04.869Z,9.75
2017-08-22T07:41:32.422Z,9.25
2017-08-22T07:44:00.443Z,7.68
2017-08-22T07:46:30.637Z,9.98
2017-08-22T07:48:58.286Z,8.55
2017-08-22T07:51:25.869Z,7.70
2017-08-22T07:53:53.464Z,10.85
2017-08-22T07:56:21.049Z,8.30
2017-08-22T07:58:48.593Z,9.18
2017-08-22T08:01:16.322Z,8.35
2017-08-22T08:03:43.856Z,8.15
2017-08-22T08:06:12.051Z,8.88
2017-08-22T08:08:39.589Z,7.90
2017-08-22T08:11:07.157Z,8.65
2017-08-22T08:13:34.686Z,9.32
2017-08-22T08:16:02.436Z,11.93
2017-08-22T08:18:29.970Z,8.57
2017-08-22T08:20:57.746Z,8.95
2017-08-22T08:23:25.289Z,8.45
2017-08-22T08:25:54.740Z,8.18
2017-08-22T08:28:22.289Z,8.38
2017-08-22T08:30:49.816Z,8.45
2017-08-22T08:33:17.462Z,8.60
2017-08-22T08:35:45.106Z,7.65
2017-08-22T08:38:13.420Z,8.38
2017-08-22T08:40:40.974Z,9.60
2017-08-22T08:43:08.510Z,8.32
2017-08-22T08:45:36.402Z,9.77
2017-08-22T08:48:03.939Z,7.47
2017-08-22T08:50:31.473Z,6.60
2017-08-22T08:52:59.652Z,7.25
2017-08-22T08:55:27.201Z,7.80
2017-08-22T08:57:54.749Z,8.50
2017-08-22T09:00:22.625Z,8.23
2017-08-22T09:02:50.180Z,6.15
2017-08-22T09:05:17.745Z,6.47
2017-08-22T09:07:45.981Z,7.85
2017-08-22T09:10:13.716Z,6.82
2017-08-22T09:12:41.257Z,10.45
2017-08-22T09:15:08.878Z,11.12
2017-08-22T09:17:36.420Z,6.78
2017-08-22T09:20:03.958Z,14.87
2017-08-22T09:22:31.584Z,6.70
2017-08-22T09:24:59.256Z,6.20
2017-08-22T09:27:26.945Z,6.07
2017-08-22T09:29:54.486Z,7.53
2017-08-22T09:32:22.085Z,7.05
2017-08-22T09:34:49.659Z,6.20
2017-08-22T09:37:17.202Z,5.95
2017-08-22T09:39:45.377Z,6.53
2017-08-22T09:42:12.918Z,5.90
2017-08-22T09:44:40.517Z,7.95
2017-08-22T09:47:08.058Z,5.00
2017-08-22T09:49:35.639Z,7.77
2017-08-22T09:52:03.177Z,6.07
2017-08-22T09:54:30.938Z,7.10
2017-08-22T09:56:58.473Z,5.93
2017-08-22T09:59:26.011Z,8.03
2017-08-22T10:01:53.597Z,5.50
2017-08-22T10:04:23.645Z,5.20
2017-08-22T10:06:51.190Z,5.27
2017-08-22T10:09:19.188Z,7.43
2017-08-22T10:11:46.738Z,5.80
2017-08-22T10:14:14.281Z,5.97
2017-08-22T10:16:44.324Z,6.73
2017-08-22T10:19:11.909Z,6.07
2017-08-22T10:21:39.488Z,8.33
2017-08-22T10:24:07.034Z,6.40
2017-08-22T10:26:34.849Z,6.47
2017-08-22T10:29:02.394Z,6.30
2017-08-22T10:31:31.036Z,5.27
2017-08-22T10:33:58.578Z,6.23
2017-08-22T10:36:26.108Z,5.33
2017-08-22T10:38:53.685Z,7.30
2017-08-22T10:41:21.657Z,5.63
2017-08-22T10:43:49.198Z,4.97
2017-08-22T10:46:16.737Z,6.63
2017-08-22T10:48:44.372Z,5.33
2017-08-22T10:51:11.926Z,7.10
2017-08-22T10:53:39.505Z,7.60
2017-08-22T10:56:07.050Z,4.37
2017-08-22T10:58:34.648Z,4.93
2017-08-22T11:01:02.189Z,5.03
2017-08-22T11:03:29.778Z,7.57
2017-08-22T11:05:57.396Z,6.10
2017-08-22T11:08:25.169Z,9.03
2017-08-22T11:10:52.716Z,6.60
2017-08-22T11:13:20.757Z,12.00
2017-08-22T11:15:48.297Z,6.03
2017-08-22T11:18:15.850Z,4.17
2017-08-22T11:20:43.420Z,7.00
2017-08-22T11:23:10.955Z,4.37
2017-08-22T11:25:39.069Z,3.83
2017-08-22T11:28:06.610Z,4.50
2017-08-22T11:30:34.146Z,5.27
2017-08-22T11:33:01.799Z,6.30
2017-08-22T11:35:29.349Z,4.90
2017-08-22T11:37:56.937Z,4.27
2017-08-22T11:40:24.500Z,4.80
2017-08-22T11:42:52.412Z,4.57
2017-08-22T11:45:19.961Z,7.43
2017-08-22T11:47:47.559Z,5.93
2017-08-22T11:50:15.203Z,4.57
2017-08-22T11:52:42.787Z,4.40
2017-08-22T11:55:10.744Z,5.43
2017-08-22T11:57:38.445Z,5.90
2017-08-22T12:00:06.017Z,5.43
2017-08-22T12:02:34.204Z,5.03
2017-08-22T12:05:01.869Z,6.50
2017-08-22T12:07:29.733Z,5.83
2017-08-22T12:09:57.360Z,6.20
2017-08-22T12:12:24.929Z,5.40
2017-08-22T12:14:52.503Z,5.80
2017-08-22T12:17:20.136Z,5.70
2017-08-22T12:19:47.937Z,5.20
2017-08-22T12:22:15.540Z,4.60
2017-08-22T12:24:43.154Z,6.43
2017-08-22T12:27:10.725Z,5.17
2017-08-22T12:29:38.402Z,5.50
2017-08-22T12:32:07.065Z,5.03
2017-08-22T12:34:34.726Z,6.60
2017-08-22T12:37:02.537Z,4.40
2017-08-22T12:39:30.151Z,4.80
2017-08-22T12:41:57.770Z,5.83
2017-08-22T12:44:25.428Z,4.97
2017-08-22T12:46:53.016Z,4.20
2017-08-22T12:49:21.703Z,7.20
2017-08-22T12:51:49.266Z,6.20
2017-08-22T12:54:16.849Z,4.83
2017-08-22T12:56:44.622Z,5.10
2017-08-22T12:59:12.421Z,5.50
2017-08-22T13:01:40.005Z,4.90
2017-08-22T13:04:07.576Z,7.20
2017-08-22T13:06:39.457Z,5.13
2017-08-22T13:09:07.034Z,5.70
2017-08-22T13:11:34.661Z,5.40
2017-08-22T13:14:02.734Z,5.70
2017-08-22T13:16:30.357Z,6.70
2017-08-22T13:18:57.950Z,5.30
2017-08-22T13:21:25.905Z,4.77
2017-08-22T13:23:53.479Z,6.17
2017-08-22T13:26:21.178Z,4.93
2017-08-22T13:28:50.527Z,5.10
2017-08-22T13:31:18.155Z,6.70
2017-08-22T13:33:45.780Z,5.20
2017-08-22T13:36:14.043Z,7.23
2017-08-22T13:38:41.684Z,4.77
2017-08-22T13:41:09.304Z,4.77
2017-08-22T13:43:37.598Z,4.63
2017-08-22T13:46:05.143Z,7.77
2017-08-22T13:48:32.752Z,6.03
2017-08-22T13:51:01.188Z,5.00
2017-08-22T13:53:28.850Z,5.13
2017-08-22T13:55:56.415Z,5.53
2017-08-22T13:58:24.448Z,4.60
2017-08-22T14:00:52.033Z,5.27
2017-08-22T14:03:19.633Z,4.97
2017-08-22T14:05:47.780Z,4.63
2017-08-22T14:08:15.782Z,6.67
2017-08-22T14:10:43.322Z,5.20
2017-08-22T14:13:10.865Z,5.33
2017-08-22T14:15:38.824Z,5.00
2017-08-22T14:18:06.408Z,5.20
2017-08-22T14:20:33.965Z,5.20
2017-08-22T14:23:01.706Z,5.50
2017-08-22T14:25:29.267Z,5.63
2017-08-22T14:27:57.110Z,5.27
2017-08-22T14:30:26.316Z,4.37
2017-08-22T14:32:54.131Z,4.90
2017-08-22T14:35:24.824Z,15.70
2017-08-22T14:37:54.718Z,7.43
2017-08-22T14:40:22.265Z,4.80
2017-08-22T14:42:49.863Z,5.70
2017-08-22T14:45:17.398Z,6.40
2017-08-22T14:47:45.417Z,4.83
2017-08-22T14:50:12.973Z,9.20
2017-08-22T14:52:40.505Z,4.87
2017-08-22T14:55:08.275Z,4.97
2017-08-22T14:57:36.111Z,6.97
2017-08-22T15:00:03.650Z,5.40
2017-08-22T15:02:31.181Z,5.57
2017-08-22T15:04:58.748Z,5.30
2017-08-22T15:07:26.470Z,5.57
2017-08-22T15:09:54.013Z,5.23
2017-08-22T15:12:21.784Z,6.47
2017-08-22T15:14:52.479Z,7.40
2017-08-22T15:17:20.065Z,5.93
2017-08-22T15:19:47.602Z,5.83
2017-08-22T15:22:15.186Z,4.90
2017-08-22T15:24:42.763Z,5.90
2017-08-22T15:27:10.429Z,5.90
2017-08-22T15:29:38.149Z,5.40
2017-08-22T15:32:05.693Z,8.83
2017-08-22T15:34:33.262Z,8.13
2017-08-22T15:37:00.846Z,6.70
2017-08-22T15:39:28.455Z,5.73
2017-08-22T15:41:55.988Z,5.63
2017-08-22T15:44:23.554Z,7.50
2017-08-22T15:46:51.770Z,6.40
2017-08-22T15:49:19.329Z,5.63
2017-08-22T15:51:46.933Z,5.80
2017-08-22T15:54:16.986Z,6.27
2017-08-22T15:56:44.529Z,7.50
2017-08-22T15:59:12.110Z,5.30
2017-08-22T16:01:39.648Z,9.47
2017-08-22T16:04:07.381Z,6.00
2017-08-22T16:06:35.044Z,7.13
2017-08-22T16:09:02.599Z,5.90
2017-08-22T16:11:30.661Z,5.70
2017-08-22T16:14:01.532Z,7.00
2017-08-22T16:16:29.076Z,5.30
2017-08-22T16:18:56.657Z,7.00
2017-08-22T16:21:24.432Z,5.83
2017-08-22T16:23:51.980Z,5.93
2017-08-22T16:26:19.556Z,6.20
2017-08-22T16:28:47.146Z,5.23
2017-08-22T16:31:14.696Z,5.53
2017-08-22T16:33:42.526Z,16.20
2017-08-22T16:36:12.816Z,7.50
2017-08-22T16:38:40.366Z,7.57
2017-08-22T16:41:08.234Z,7.40
2017-08-22T16:43:35.829Z,6.20
2017-08-22T16:46:03.381Z,5.80
2017-08-22T16:48:30.928Z,5.93
2017-08-22T16:50:58.518Z,7.43
2017-08-22T16:53:26.061Z,6.17
2017-08-22T16:55:53.657Z,5.67
2017-08-22T16:58:21.216Z,7.07
2017-08-22T17:00:49.737Z,5.70
2017-08-22T17:03:17.293Z,5.67
2017-08-22T17:05:44.850Z,5.77
2017-08-22T17:08:12.638Z,6.83
2017-08-22T17:10:40.582Z,6.60
2017-08-22T17:13:08.125Z,6.63
2017-08-22T17:15:35.688Z,7.97
2017-08-22T17:18:03.429Z,8.83
2017-08-22T17:20:30.982Z,7.17
2017-08-22T17:23:01.825Z,6.80
2017-08-22T17:25:29.717Z,6.87
2017-08-22T17:27:57.263Z,7.57
2017-08-22T17:30:30.140Z,6.80
2017-08-22T17:33:00.403Z,9.53
2017-08-22T17:35:27.959Z,7.80
2017-08-22T17:37:55.665Z,7.73
2017-08-22T17:40:23.202Z,7.60
2017-08-22T17:42:51.054Z,9.07
2017-08-22T17:45:18.597Z,7.20
2017-08-22T17:47:46.181Z,7.70
2017-08-22T17:50:13.769Z,7.30
2017-08-22T17:52:41.701Z,9.20
2017-08-22T17:55:09.233Z,7.83
2017-08-22T17:57:36.775Z,7.07
2017-08-22T18:00:04.465Z,9.33
2017-08-22T18:02:32.015Z,9.40
2017-08-22T18:04:59.601Z,7.07
2017-08-22T18:07:27.152Z,10.80
2017-08-22T18:09:54.845Z,18.00
2017-08-22T18:12:22.384Z,8.17
2017-08-22T18:14:49.922Z,7.50
2017-08-22T18:17:17.902Z,16.40
2017-08-22T18:19:45.452Z,8.70
2017-08-22T18:22:12.995Z,7.53
2017-08-22T18:24:40.684Z,9.47
2017-08-22T18:27:08.276Z,9.50
2017-08-22T18:29:35.820Z,10.20
2017-08-22T18:32:03.465Z,11.43
2017-08-22T18:34:31.021Z,11.30
2017-08-22T18:36:58.670Z,10.33
2017-08-22T18:39:26.215Z,10.90
2017-08-22T18:41:53.761Z,10.40
2017-08-22T18:44:21.468Z,9.93
2017-08-22T18:46:49.026Z,10.43
2017-08-22T18:49:16.600Z,10.47
2017-08-22T18:51:44.143Z,13.03
2017-08-22T18:54:11.880Z,10.30
2017-08-22T18:56:39.414Z,10.40
2017-08-22T18:59:07.006Z,11.00
2017-08-22T19:01:34.541Z,10.97
2017-08-22T19:04:02.152Z,10.90
2017-08-22T19:06:29.988Z,12.13
2017-08-22T19:08:57.536Z,11.00
2017-08-22T19:11:25.321Z,10.93
2017-08-22T19:13:52.869Z,11.03
2017-08-22T19:16:20.464Z,11.50
2017-08-22T19:18:48.013Z,11.03
2017-08-22T19:21:15.601Z,11.60
2017-08-22T19:23:43.154Z,11.37
2017-08-22T19:26:10.742Z,11.80
2017-08-22T19:28:39.221Z,12.13
2017-08-22T19:31:07.075Z,11.17
2017-08-22T19:33:34.630Z,12.23
2017-08-22T19:36:05.988Z,12.70
2017-08-22T19:38:33.545Z,13.27
2017-08-22T19:41:01.512Z,14.37
2017-08-22T19:43:29.061Z,13.60
2017-08-22T19:45:56.645Z,14.77
2017-08-22T19:48:24.198Z,15.80
2017-08-22T19:50:51.834Z,16.20
2017-08-22T19:53:19.634Z,14.23
2017-08-22T19:55:47.225Z,14.90
2017-08-22T19:58:14.781Z,15.45
2017-08-22T20:00:42.330Z,15.45
2017-08-22T20:03:09.927Z,14.77
2017-08-22T20:05:37.477Z,15.68
2017-08-22T20:08:06.405Z,16.02
2017-08-22T20:10:34.393Z,14.90
2017-08-22T20:13:01.943Z,16.20
2017-08-22T20:15:29.569Z,17.42
2017-08-22T20:17:57.674Z,15.40
2017-08-22T20:20:25.225Z,16.52
2017-08-22T20:22:52.772Z,14.80
2017-08-22T20:25:21.004Z,17.10
2017-08-22T20:27:48.561Z,16.17
2017-08-22T20:30:16.107Z,15.80
2017-08-22T20:32:43.930Z,15.73
2017-08-22T20:35:11.476Z,16.52
2017-08-22T20:37:39.795Z,15.60
2017-08-22T20:40:07.337Z,16.12
2017-08-22T20:42:35.217Z,16.33
2017-08-22T20:45:02.940Z,16.30
2017-08-22T20:47:30.570Z,15.57
2017-08-22T20:49:58.173Z,17.73
2017-08-22T20:52:25.765Z,17.87
2017-08-22T20:54:53.481Z,19.05
2017-08-22T20:57:21.098Z,18.25
2017-08-22T20:59:48.655Z,18.37
2017-08-22T21:02:16.255Z,19.83
2017-08-22T21:04:43.851Z,18.87
2017-08-22T21:07:11.397Z,19.12
2017-08-22T21:09:39.306Z,20.55
2017-08-22T21:12:06.860Z,20.80
2017-08-22T21:14:34.424Z,20.12
2017-08-22T21:17:02.396Z,20.48
2017-08-22T21:19:29.993Z,21.98
2017-08-22T21:21:57.549Z,21.83
2017-08-22T21:24:25.438Z,20.00
2017-08-22T21:26:53.092Z,19.90
2017-08-22T21:29:20.645Z,20.77
2017-08-22T21:31:48.509Z,20.40
2017-08-22T21:34:16.066Z,20.85
2017-08-22T21:36:43.612Z,18.55
2017-08-22T21:39:11.768Z,18.10
2017-08-22T21:41:39.313Z,18.62
2017-08-22T21:44:10.862Z,20.83
2017-08-22T21:46:38.746Z,20.15
2017-08-22T21:49:06.327Z,20.23
2017-08-22T21:51:33.868Z,20.80
2017-08-22T21:54:01.607Z,21.80
2017-08-22T21:56:29.151Z,22.73
2017-08-22T21:58:56.743Z,22.95
2017-08-22T22:01:24.293Z,22.50
2017-08-22T22:03:51.892Z,22.70
2017-08-22T22:06:19.433Z,22.60
2017-08-22T22:08:47.582Z,22.30
2017-08-22T22:11:15.136Z,22.58
2017-08-22T22:13:43.023Z,22.52
2017-08-22T22:16:10.568Z,22.70
2017-08-22T22:18:38.100Z,22.58
2017-08-22T22:21:05.681Z,22.65
2017-08-22T22:23:33.221Z,22.20
2017-08-22T22:26:01.544Z,22.98
2017-08-22T22:28:29.089Z,22.52
2017-08-22T22:30:56.632Z,22.60
2017-08-22T22:33:24.741Z,24.00
2017-08-22T22:35:52.288Z,24.08
2017-08-22T22:38:19.839Z,24.33
2017-08-22T22:40:47.420Z,23.12
2017-08-22T22:43:14.975Z,24.75
2017-08-22T22:45:43.196Z,24.55
2017-08-22T22:48:10.744Z,23.75
2017-08-22T22:50:38.289Z,24.70
2017-08-22T22:53:05.876Z,23.70
2017-08-22T22:55:33.468Z,23.27
2017-08-22T22:58:01.013Z,22.80
2017-08-22T23:00:30.780Z,22.10
2017-08-22T23:02:58.324Z,22.35
2017-08-22T23:05:25.868Z,21.42
2017-08-22T23:07:53.753Z,20.55
2017-08-22T23:10:21.301Z,19.87
2017-08-22T23:12:48.880Z,20.73
2017-08-22T23:15:16.420Z,19.98
2017-08-22T23:17:44.010Z,21.73
2017-08-22T23:20:11.558Z,21.73
2017-08-22T23:22:39.297Z,20.40
2017-08-22T23:25:06.842Z,21.00
2017-08-22T23:27:34.697Z,21.45
2017-08-22T23:30:02.493Z,21.17
2017-08-22T23:32:30.042Z,20.75
2017-08-22T23:34:57.633Z,21.23
2017-08-22T23:37:25.172Z,19.95
2017-08-22T23:39:52.753Z,20.92
2017-08-22T23:42:20.293Z,20.83
2017-08-22T23:44:47.951Z,20.88
2017-08-22T23:47:15.490Z,18.90
2017-08-22T23:49:43.198Z,20.92
2017-08-22T23:52:10.740Z,20.50
2017-08-22T23:54:38.332Z,20.55
2017-08-22T23:57:05.881Z,19.80
2017-08-22T23:59:33.473Z,20.17
